Time;durP1;ratioP1;P1;durP2;ratioP2;P2;SDS_P1;SDS_P2;PMS_P1;PMS_P2;Temp;Humidity;BMP_temperature;BMP_pressure;BME280_temperature;BME280_humidity;BME280_pressure;Samples;Min_cycle;Max_cycle;Signal;HPM_P1;HPM_P2
2022/03/21 00:01:56;;;;;;;17.85;15.30;;;8.30;68.90;;;;;;4983398;28;20040;-83
2022/03/21 00:04:22;;;;;;;18.98;15.23;;;8.30;68.90;;;;;;5012924;28;20103;-85
2022/03/21 00:06:49;;;;;;;19.35;15.27;;;8.30;68.90;;;;;;5014492;28;20076;-85
2022/03/21 00:09:14;;;;;;;20.23;14.93;;;8.20;68.90;;;;;;4992626;28;20033;-84
2022/03/21 00:11:40;;;;;;;19.33;15.45;;;8.20;68.90;;;;;;4993067;28;20026;-85
2022/03/21 00:14:07;;;;;;;19.52;14.95;;;8.20;68.90;;;;;;5011496;28;20033;-84
2022/03/21 00:16:33;;;;;;;19.75;16.02;;;8.20;68.90;;;;;;4988998;28;20494;-84
2022/03/21 00:19:02;;;;;;;20.75;16.05;;;8.10;68.90;;;;;;4990056;28;20078;-84
2022/03/21 00:21:27;;;;;;;20.73;15.63;;;8.10;68.90;;;;;;4993385;28;20120;-83
2022/03/21 00:23:53;;;;;;;18.10;14.63;;;8.10;68.90;;;;;;4960573;28;20128;-84
2022/03/21 00:26:19;;;;;;;19.85;15.18;;;8.10;68.90;;;;;;4993136;28;20623;-84
2022/03/21 00:28:45;;;;;;;16.88;14.93;;;8.00;68.90;;;;;;5008990;28;20030;-84
2022/03/21 00:31:10;;;;;;;19.50;15.43;;;8.00;68.90;;;;;;4978659;28;20113;-84
2022/03/21 00:33:36;;;;;;;20.00;15.75;;;8.00;68.90;;;;;;4996695;28;20026;-84
2022/03/21 00:36:02;;;;;;;20.90;15.35;;;8.00;68.90;;;;;;4960065;28;20064;-85
2022/03/21 00:38:28;;;;;;;20.05;15.95;;;8.00;69.00;;;;;;4979022;28;20033;-84
2022/03/21 00:40:54;;;;;;;22.48;16.80;;;7.90;68.90;;;;;;4972070;28;20414;-84
2022/03/21 00:43:22;;;;;;;20.27;15.63;;;7.90;69.00;;;;;;4981184;28;20041;-85
2022/03/21 00:45:54;;;;;;;19.25;14.82;;;7.80;68.90;;;;;;5012066;28;20044;-84
2022/03/21 00:48:25;;;;;;;19.73;15.82;;;7.90;69.70;;;;;;5007998;28;20034;-84
2022/03/21 00:50:52;;;;;;;19.88;16.20;;;7.80;69.00;;;;;;4972238;28;20035;-84
2022/03/21 00:53:19;;;;;;;19.67;15.48;;;7.80;69.00;;;;;;4979327;28;20026;-84
2022/03/21 00:55:46;;;;;;;18.67;15.27;;;7.80;69.10;;;;;;5004921;28;20030;-84
2022/03/21 00:58:12;;;;;;;19.27;15.10;;;7.70;69.00;;;;;;4978012;28;20022;-85
2022/03/21 01:00:38;;;;;;;19.92;15.02;;;7.80;69.10;;;;;;5011726;28;20029;-84
2022/03/21 01:03:04;;;;;;;19.63;15.07;;;7.70;69.00;;;;;;4977709;28;20414;-84
2022/03/21 01:05:30;;;;;;;19.95;14.98;;;7.70;69.00;;;;;;4971167;28;20693;-85
2022/03/21 01:07:58;;;;;;;19.17;15.48;;;7.70;69.10;;;;;;5008965;28;20042;-85
2022/03/21 01:10:26;;;;;;;18.33;14.25;;;7.60;69.00;;;;;;4994666;28;20053;-85
2022/03/21 01:12:52;;;;;;;19.77;15.20;;;7.60;69.00;;;;;;4990462;28;20014;-84
2022/03/21 01:15:20;;;;;;;19.30;15.13;;;7.60;69.10;;;;;;4990573;28;20046;-85
2022/03/21 01:17:47;;;;;;;19.05;14.05;;;7.60;69.10;;;;;;4993186;28;20109;-84
2022/03/21 01:20:15;;;;;;;16.88;13.77;;;7.60;69.10;;;;;;4981284;28;20034;-85
2022/03/21 01:22:41;;;;;;;19.90;15.13;;;7.60;69.10;;;;;;4995236;28;20080;-85
2022/03/21 01:25:08;;;;;;;19.20;15.48;;;7.50;69.00;;;;;;4994737;28;20034;-84
2022/03/21 01:27:34;;;;;;;18.30;14.60;;;7.50;69.10;;;;;;5010782;28;20103;-83
2022/03/21 01:30:05;;;;;;;20.55;15.52;;;7.50;69.10;;;;;;5010857;28;20036;-85
2022/03/21 01:32:32;;;;;;;17.55;13.88;;;7.40;69.10;;;;;;4999798;28;20034;-84
2022/03/21 01:34:58;;;;;;;19.15;14.80;;;7.40;69.10;;;;;;4990591;28;20551;-84
2022/03/21 01:37:24;;;;;;;18.23;15.25;;;7.40;69.10;;;;;;5002981;28;20064;-84
2022/03/21 01:39:50;;;;;;;18.60;14.68;;;7.40;69.10;;;;;;4992453;28;20092;-84
2022/03/21 01:42:15;;;;;;;18.95;14.82;;;7.40;69.10;;;;;;4990452;28;20026;-85
2022/03/21 01:44:42;;;;;;;20.95;15.88;;;7.40;69.10;;;;;;4981322;28;20090;-84
2022/03/21 01:47:08;;;;;;;21.42;16.27;;;7.40;69.20;;;;;;4996533;28;20033;-85
2022/03/21 01:49:34;;;;;;;19.42;15.13;;;7.30;69.10;;;;;;4994796;28;20165;-85
2022/03/21 01:52:00;;;;;;;20.27;16.23;;;7.30;69.10;;;;;;5009925;28;20469;-85
2022/03/21 01:57:11;;;;;;;16.73;14.07;;;7.20;69.10;;;;;;4997561;28;20092;-85
2022/03/21 01:59:37;;;;;;;18.85;14.77;;;7.20;69.10;;;;;;4973322;28;20474;-85
2022/03/21 02:02:06;;;;;;;18.85;14.93;;;7.20;69.20;;;;;;4995206;28;20029;-85
2022/03/21 02:04:33;;;;;;;19.65;14.23;;;7.10;69.10;;;;;;4986161;28;20466;-85
2022/03/21 02:06:59;;;;;;;19.65;15.13;;;7.10;69.10;;;;;;4983900;28;20456;-85
2022/03/21 02:09:26;;;;;;;19.55;15.38;;;7.10;69.20;;;;;;5001503;28;20037;-85
2022/03/21 02:11:52;;;;;;;19.77;15.80;;;7.10;69.20;;;;;;4999650;28;20045;-85
2022/03/21 02:14:19;;;;;;;20.50;15.80;;;7.10;69.20;;;;;;5015280;28;20025;-85
2022/03/21 02:16:44;;;;;;;19.63;15.80;;;7.00;69.10;;;;;;4983676;28;20056;-85
2022/03/21 02:19:16;;;;;;;19.50;14.88;;;7.10;69.20;;;;;;5017657;28;20029;-85
2022/03/21 02:21:57;;;;;;;21.67;16.17;;;7.00;69.20;;;;;;5008610;28;20030;-85
2022/03/21 02:24:51;;;;;;;18.80;14.80;;;7.00;69.30;;;;;;4996468;28;20041;-85
2022/03/21 02:27:18;;;;;;;19.13;14.38;;;7.00;69.30;;;;;;5004364;28;20112;-85
2022/03/21 02:29:47;;;;;;;17.55;14.27;;;6.90;69.20;;;;;;5006918;28;20047;-85
2022/03/21 02:32:13;;;;;;;19.17;15.52;;;6.90;69.30;;;;;;5016147;28;20532;-85
2022/03/21 02:34:40;;;;;;;18.65;15.32;;;6.90;69.30;;;;;;5008292;28;20082;-85
2022/03/21 02:37:09;;;;;;;18.60;14.75;;;6.90;69.30;;;;;;4992137;28;20140;-85
2022/03/21 02:39:36;;;;;;;18.20;14.68;;;6.90;69.90;;;;;;5006879;28;20598;-85
2022/03/21 02:42:04;;;;;;;18.38;15.13;;;6.80;69.20;;;;;;5013456;28;20085;-84
2022/03/21 02:44:36;;;;;;;19.90;15.85;;;6.80;69.30;;;;;;4987481;28;20120;-84
2022/03/21 02:47:04;;;;;;;18.98;14.80;;;6.80;69.30;;;;;;5014286;28;20033;-85
2022/03/21 02:49:29;;;;;;;20.25;15.57;;;6.80;69.30;;;;;;5000748;28;20025;-85
2022/03/21 02:51:57;;;;;;;19.55;15.50;;;6.80;69.30;;;;;;4992742;28;20041;-85
2022/03/21 02:54:24;;;;;;;19.25;15.20;;;6.70;69.30;;;;;;5016900;28;20117;-85
2022/03/21 02:56:50;;;;;;;17.50;14.15;;;6.80;69.30;;;;;;5000307;28;20029;-85
2022/03/21 02:59:17;;;;;;;19.30;15.15;;;6.70;69.30;;;;;;5003558;28;20056;-84
2022/03/21 03:01:43;;;;;;;19.75;15.18;;;6.70;69.30;;;;;;5016759;28;20029;-84
2022/03/21 03:04:09;;;;;;;18.17;14.32;;;6.70;69.30;;;;;;4981585;28;20470;-85
2022/03/21 03:06:39;;;;;;;18.77;14.88;;;6.60;69.30;;;;;;4994891;28;20450;-84
2022/03/21 03:09:07;;;;;;;20.50;15.60;;;6.60;69.30;;;;;;5013090;28;20089;-85
2022/03/21 03:11:36;;;;;;;17.67;13.98;;;6.60;69.30;;;;;;5016367;28;20033;-85
2022/03/21 03:14:03;;;;;;;18.60;13.73;;;6.60;69.40;;;;;;5007403;28;20032;-84
2022/03/21 03:16:29;;;;;;;17.48;13.90;;;6.60;69.40;;;;;;4998633;28;20033;-85
2022/03/21 03:18:55;;;;;;;19.05;15.00;;;6.50;69.30;;;;;;4992307;28;20493;-84
2022/03/21 03:21:23;;;;;;;20.40;14.75;;;6.60;69.40;;;;;;4982979;28;20492;-85
2022/03/21 03:23:50;;;;;;;20.15;14.55;;;6.50;69.40;;;;;;5028819;28;20125;-84
2022/03/21 03:26:16;;;;;;;18.52;14.32;;;6.50;69.40;;;;;;4994176;28;20072;-84
2022/03/21 03:28:43;;;;;;;20.40;14.55;;;6.50;69.40;;;;;;4971185;28;20112;-85
2022/03/21 03:31:10;;;;;;;19.13;14.82;;;6.50;69.50;;;;;;4996676;28;20056;-85
2022/03/21 03:33:36;;;;;;;18.35;13.98;;;6.40;69.40;;;;;;5006775;28;20022;-84
2022/03/21 03:36:02;;;;;;;18.65;14.73;;;6.40;69.50;;;;;;5019758;28;20032;-86
2022/03/21 03:38:28;;;;;;;19.98;14.73;;;6.40;69.50;;;;;;5004731;28;20021;-85
2022/03/21 03:40:54;;;;;;;19.40;14.38;;;6.40;69.40;;;;;;4999845;28;20052;-83
2022/03/21 03:43:20;;;;;;;19.00;15.07;;;6.40;69.50;;;;;;5015803;28;20060;-85
2022/03/21 03:45:49;;;;;;;19.38;14.70;;;6.40;69.50;;;;;;5004535;28;20028;-85
2022/03/21 03:48:15;;;;;;;19.52;14.48;;;6.30;69.50;;;;;;4991664;28;20033;-84
2022/03/21 03:50:41;;;;;;;18.25;14.20;;;6.30;69.50;;;;;;5005221;28;20021;-84
2022/03/21 03:53:07;;;;;;;18.67;14.13;;;6.30;69.50;;;;;;4991332;28;20026;-83
2022/03/21 03:55:33;;;;;;;19.83;15.30;;;6.30;69.60;;;;;;4983744;28;20044;-85
2022/03/21 03:57:59;;;;;;;20.58;15.48;;;6.30;69.60;;;;;;4991324;28;20026;-84
2022/03/21 04:00:25;;;;;;;18.02;14.00;;;6.20;69.50;;;;;;4975577;28;20048;-84
2022/03/21 04:05:35;;;;;;;18.00;14.57;;;6.20;69.50;;;;;;4988723;28;20033;-84
2022/03/21 04:08:01;;;;;;;18.67;14.70;;;6.20;69.50;;;;;;4999926;28;20485;-84
2022/03/21 04:10:27;;;;;;;19.23;14.57;;;6.20;69.50;;;;;;5013885;28;20033;-84
2022/03/21 04:12:53;;;;;;;18.85;14.13;;;6.10;69.50;;;;;;4998630;28;20033;-83
2022/03/21 04:15:21;;;;;;;18.40;14.02;;;6.20;69.60;;;;;;4998526;28;20033;-85
2022/03/21 04:17:47;;;;;;;19.02;14.35;;;6.10;69.60;;;;;;5014445;28;20018;-84
2022/03/21 04:20:13;;;;;;;18.23;14.23;;;6.10;69.60;;;;;;4999385;28;20040;-85
2022/03/21 04:22:39;;;;;;;18.45;14.35;;;6.10;69.60;;;;;;5012628;28;20108;-85
2022/03/21 04:25:07;;;;;;;19.10;15.00;;;6.10;69.60;;;;;;4995997;28;20200;-85
2022/03/21 04:27:33;;;;;;;16.73;13.88;;;6.10;69.60;;;;;;5013712;28;20072;-84
2022/03/21 04:30:00;;;;;;;17.27;13.60;;;6.10;69.70;;;;;;5015579;28;20128;-85
2022/03/21 04:32:26;;;;;;;18.55;14.23;;;6.00;69.60;;;;;;4991640;28;20034;-85
2022/03/21 04:34:53;;;;;;;17.90;12.90;;;6.00;69.60;;;;;;4987625;28;20026;-85
2022/03/21 04:37:19;;;;;;;15.65;13.10;;;6.00;69.70;;;;;;5011187;28;20032;-85
2022/03/21 04:39:44;;;;;;;17.83;14.00;;;6.00;70.30;;;;;;4998578;28;20041;-85
2022/03/21 04:42:10;;;;;;;17.45;13.35;;;6.00;69.70;;;;;;4966748;28;20427;-85
2022/03/21 04:44:36;;;;;;;16.65;12.73;;;5.90;69.60;;;;;;5020818;28;20033;-84
2022/03/21 04:47:02;;;;;;;17.70;13.05;;;5.90;69.60;;;;;;5008950;28;20084;-84
2022/03/21 04:49:28;;;;;;;18.33;13.73;;;5.90;69.70;;;;;;5007577;28;20333;-84
2022/03/21 04:51:54;;;;;;;18.98;14.57;;;5.90;69.70;;;;;;5007150;28;20103;-84
2022/03/21 04:54:20;;;;;;;18.08;13.35;;;5.90;69.70;;;;;;5010409;28;20127;-84
2022/03/21 04:56:46;;;;;;;16.42;13.13;;;5.80;69.70;;;;;;4996207;28;20054;-85
2022/03/21 04:59:12;;;;;;;17.38;13.65;;;5.80;69.70;;;;;;5006880;28;20025;-84
2022/03/21 05:01:38;;;;;;;17.60;13.35;;;5.80;69.70;;;;;;4978799;28;20022;-84
2022/03/21 05:04:03;;;;;;;17.05;13.10;;;5.80;69.70;;;;;;4986509;28;20037;-84
2022/03/21 05:06:29;;;;;;;15.70;12.45;;;5.80;69.70;;;;;;4966527;28;20022;-84
2022/03/21 05:08:55;;;;;;;18.67;13.02;;;5.80;69.70;;;;;;5015115;28;20033;-85
2022/03/21 05:11:20;;;;;;;16.73;13.23;;;5.80;69.70;;;;;;4998457;28;20042;-81
2022/03/21 05:13:47;;;;;;;19.20;13.68;;;5.80;69.70;;;;;;5012945;28;20041;-78
2022/03/21 05:16:13;;;;;;;16.73;12.73;;;5.80;69.80;;;;;;5030339;28;20025;-79
2022/03/21 05:18:39;;;;;;;15.73;12.27;;;5.70;69.70;;;;;;4972618;28;20037;-77
2022/03/21 05:21:05;;;;;;;16.77;12.60;;;5.70;69.70;;;;;;4973881;28;20477;-78
2022/03/21 05:31:45;;;;;;;16.50;12.60;;;5.60;69.70;;;;;;4998341;28;20128;-79
2022/03/21 05:36:55;;;;;;;15.18;12.48;;;5.60;69.80;;;;;;5010200;28;20025;-79
2022/03/21 05:39:24;;;;;;;17.15;12.65;;;5.60;69.80;;;;;;5015755;28;20133;-79
2022/03/21 05:41:53;;;;;;;16.92;12.52;;;5.60;69.80;;;;;;5001240;28;20057;-79
2022/03/21 05:44:19;;;;;;;16.95;12.43;;;5.50;69.80;;;;;;4977360;28;20443;-78
2022/03/21 05:46:46;;;;;;;17.60;12.88;;;5.50;69.80;;;;;;4977412;28;20031;-78
2022/03/21 05:49:12;;;;;;;15.07;11.32;;;5.50;69.80;;;;;;4976520;28;20018;-81
2022/03/21 05:51:40;;;;;;;16.38;12.70;;;5.50;69.80;;;;;;4958247;28;20030;-77
2022/03/21 05:54:12;;;;;;;16.65;12.68;;;5.50;69.80;;;;;;4979497;28;20081;-77
2022/03/21 05:56:43;;;;;;;15.80;11.90;;;5.50;69.80;;;;;;4988845;28;20031;-78
2022/03/21 06:01:54;;;;;;;17.27;12.40;;;5.40;69.80;;;;;;4976275;28;20035;-79
2022/03/21 06:04:21;;;;;;;16.80;12.05;;;5.40;69.80;;;;;;4993345;28;20027;-80
2022/03/21 06:06:47;;;;;;;16.70;12.82;;;5.40;69.90;;;;;;4960789;28;20046;-81
2022/03/21 06:09:15;;;;;;;16.40;12.27;;;5.40;69.90;;;;;;4991609;28;20112;-82
2022/03/21 06:11:41;;;;;;;15.73;11.95;;;5.40;69.90;;;;;;4961715;28;20511;-80
2022/03/21 06:14:08;;;;;;;17.48;13.27;;;5.40;70.50;;;;;;4993660;28;20073;-78
2022/03/21 06:16:34;;;;;;;15.38;12.15;;;5.40;69.90;;;;;;4993710;28;20085;-78
2022/03/21 06:19:00;;;;;;;17.10;12.10;;;5.30;69.90;;;;;;4977422;28;20026;-79
2022/03/21 06:21:30;;;;;;;17.02;12.73;;;5.40;69.90;;;;;;4993598;28;20442;-79
2022/03/21 06:23:59;;;;;;;16.50;12.32;;;5.30;69.90;;;;;;4993970;28;20034;-80
2022/03/21 06:26:25;;;;;;;16.17;12.57;;;5.30;69.90;;;;;;4968744;28;20462;-80
2022/03/21 06:28:51;;;;;;;16.42;12.27;;;5.30;69.90;;;;;;4977158;28;20026;-80
2022/03/21 06:31:16;;;;;;;16.30;12.20;;;5.30;69.90;;;;;;4957143;28;20031;-80
2022/03/21 06:33:42;;;;;;;17.90;12.93;;;5.30;70.00;;;;;;4992699;28;20105;-80
2022/03/21 06:36:08;;;;;;;17.08;12.65;;;5.30;70.00;;;;;;4992837;28;20512;-80
2022/03/21 06:38:35;;;;;;;15.63;11.82;;;5.30;70.00;;;;;;4993269;28;20022;-81
2022/03/21 06:41:01;;;;;;;16.17;11.80;;;5.30;70.00;;;;;;4978133;28;20069;-80
2022/03/21 06:43:27;;;;;;;15.38;11.43;;;5.30;70.00;;;;;;5006954;28;20034;-79
2022/03/21 06:45:55;;;;;;;17.00;12.18;;;5.30;70.10;;;;;;5010216;28;20112;-80
2022/03/21 06:48:22;;;;;;;15.00;11.32;;;5.20;70.00;;;;;;5007098;28;20037;-80
2022/03/21 06:50:49;;;;;;;15.50;11.60;;;5.20;70.00;;;;;;5015196;28;20532;-80
2022/03/21 06:53:17;;;;;;;16.17;12.30;;;5.20;70.10;;;;;;4998999;28;20064;-80
2022/03/21 06:55:43;;;;;;;16.58;12.55;;;5.20;70.10;;;;;;4989623;28;20028;-80
2022/03/21 06:58:11;;;;;;;17.00;12.52;;;5.20;70.10;;;;;;5023704;28;20079;-80
2022/03/21 07:00:47;;;;;;;15.90;11.90;;;5.20;70.10;;;;;;5035481;28;20444;-81
2022/03/21 07:03:17;;;;;;;15.98;11.25;;;5.20;70.20;;;;;;4999342;28;20124;-80
2022/03/21 07:05:43;;;;;;;15.65;11.55;;;5.20;70.20;;;;;;5014492;28;20057;-80
2022/03/21 07:08:09;;;;;;;15.38;11.27;;;5.20;70.20;;;;;;5000459;28;20359;-80
2022/03/21 07:10:35;;;;;;;14.70;11.60;;;5.20;70.20;;;;;;5019063;28;20051;-80
2022/03/21 07:13:02;;;;;;;15.13;11.18;;;5.20;70.30;;;;;;5014691;28;20022;-81
2022/03/21 07:15:28;;;;;;;16.25;12.40;;;5.20;70.30;;;;;;5014516;28;20060;-82
2022/03/21 07:17:58;;;;;;;14.95;11.32;;;5.20;70.30;;;;;;4995587;28;20022;-79
2022/03/21 07:20:28;;;;;;;15.40;11.45;;;5.20;70.30;;;;;;5014459;28;20045;-79
2022/03/21 07:22:58;;;;;;;13.52;10.85;;;5.20;70.30;;;;;;4995382;28;20367;-79
2022/03/21 07:25:24;;;;;;;14.35;10.93;;;5.20;70.40;;;;;;5012495;28;20048;-79
2022/03/21 07:27:51;;;;;;;16.70;11.68;;;5.20;70.40;;;;;;4999045;28;20121;-80
2022/03/21 07:30:18;;;;;;;14.60;10.88;;;5.20;70.40;;;;;;5015439;28;20083;-80
2022/03/21 07:32:44;;;;;;;14.80;10.65;;;5.20;70.50;;;;;;4989807;28;20033;-81
2022/03/21 07:35:10;;;;;;;13.43;10.00;;;5.20;70.50;;;;;;5015619;28;20037;-80
2022/03/21 07:37:47;;;;;;;14.25;10.90;;;5.20;70.60;;;;;;5006423;28;20025;-80
2022/03/21 07:40:14;;;;;;;15.27;11.40;;;5.30;70.70;;;;;;5008424;28;20036;-79
2022/03/21 07:42:41;;;;;;;17.13;11.25;;;5.30;70.70;;;;;;4973025;28;20444;-79
2022/03/21 07:47:53;;;;;;;14.05;11.38;;;5.30;70.80;;;;;;4991910;28;20037;-78
2022/03/21 07:50:20;;;;;;;14.63;11.18;;;5.30;71.50;;;;;;4956232;28;20039;-78
2022/03/21 07:52:47;;;;;;;14.23;11.23;;;5.30;70.80;;;;;;4972369;28;20035;-79
2022/03/21 07:55:12;;;;;;;15.80;11.10;;;5.30;70.90;;;;;;4991519;28;20030;-79
2022/03/21 07:57:38;;;;;;;16.02;11.45;;;5.30;70.90;;;;;;4992410;28;20026;-79
2022/03/21 08:00:05;;;;;;;15.75;11.05;;;5.30;70.90;;;;;;4974029;28;20022;-81
2022/03/21 08:02:39;;;;;;;14.32;10.95;;;5.40;71.10;;;;;;4991065;28;20098;-80
2022/03/21 08:05:05;;;;;;;15.73;11.32;;;5.40;71.10;;;;;;4991067;28;20026;-79
2022/03/21 08:07:35;;;;;;;13.75;10.73;;;5.40;71.10;;;;;;4955495;28;20031;-79
2022/03/21 08:10:03;;;;;;;14.50;11.27;;;5.40;71.20;;;;;;4974752;28;20439;-79
2022/03/21 08:12:29;;;;;;;15.30;11.05;;;5.50;71.30;;;;;;4989839;28;20061;-80
2022/03/21 08:14:56;;;;;;;14.68;11.00;;;5.50;71.30;;;;;;4990573;28;20054;-79
2022/03/21 08:17:22;;;;;;;13.57;10.77;;;5.50;71.30;;;;;;4942776;28;20391;-81
2022/03/21 08:19:48;;;;;;;15.55;10.77;;;5.50;71.40;;;;;;4971712;28;20045;-80
2022/03/21 08:22:15;;;;;;;14.38;10.75;;;5.60;71.40;;;;;;4988403;28;20030;-80
2022/03/21 08:24:41;;;;;;;14.68;11.18;;;5.60;71.50;;;;;;4970353;28;20058;-79
2022/03/21 08:27:07;;;;;;;14.13;11.10;;;5.60;71.50;;;;;;4966905;28;20038;-79
2022/03/21 08:29:33;;;;;;;15.48;11.13;;;5.70;71.60;;;;;;4970742;28;20039;-80
2022/03/21 08:32:00;;;;;;;14.52;11.27;;;5.70;71.60;;;;;;4974932;28;20065;-80
2022/03/21 08:34:25;;;;;;;15.32;11.57;;;5.70;71.70;;;;;;4958590;28;20035;-79
2022/03/21 08:36:51;;;;;;;15.18;11.73;;;5.70;71.60;;;;;;4958556;28;20088;-80
2022/03/21 08:39:17;;;;;;;15.00;11.82;;;5.80;71.70;;;;;;4971830;28;20369;-79
2022/03/21 08:41:43;;;;;;;15.10;11.18;;;5.80;71.80;;;;;;4978383;28;20121;-79
2022/03/21 08:44:09;;;;;;;14.02;11.00;;;5.80;71.70;;;;;;4990102;28;20492;-78
2022/03/21 08:46:35;;;;;;;16.80;10.70;;;5.90;71.80;;;;;;5006430;28;20033;-80
2022/03/21 08:51:46;;;;;;;15.60;11.10;;;5.90;71.80;;;;;;5010807;28;20038;-79
2022/03/21 08:54:13;;;;;;;14.95;10.90;;;6.00;71.90;;;;;;4992870;28;20033;-78
2022/03/21 08:56:39;;;;;;;15.65;10.85;;;6.00;71.90;;;;;;4994879;28;20121;-79
2022/03/21 08:59:05;;;;;;;14.50;10.63;;;6.10;72.10;;;;;;5009996;28;20358;-80
2022/03/21 09:01:32;;;;;;;16.42;10.98;;;6.10;72.10;;;;;;4980242;28;20038;-80
2022/03/21 09:04:01;;;;;;;14.88;10.48;;;6.20;72.10;;;;;;4996436;28;20028;-79
2022/03/21 09:06:28;;;;;;;14.95;10.40;;;6.20;72.20;;;;;;5009919;28;20030;-79
2022/03/21 09:08:55;;;;;;;14.85;10.15;;;6.20;72.20;;;;;;4993908;28;20123;-79
2022/03/21 09:11:22;;;;;;;15.75;10.57;;;6.30;72.20;;;;;;5010011;28;20038;-80
2022/03/21 09:13:48;;;;;;;12.88;9.98;;;6.30;72.20;;;;;;4988442;28;20160;-80
2022/03/21 09:16:15;;;;;;;13.85;10.00;;;6.40;72.20;;;;;;5000541;28;20071;-80
2022/03/21 09:18:42;;;;;;;11.35;8.82;;;6.50;72.30;;;;;;5014508;28;20052;-79
2022/03/21 09:21:08;;;;;;;12.82;9.40;;;6.50;72.30;;;;;;4981989;28;20034;-78
2022/03/21 09:23:34;;;;;;;12.98;9.25;;;6.60;72.20;;;;;;5015090;28;20491;-80
2022/03/21 09:26:01;;;;;;;12.57;9.13;;;6.70;72.20;;;;;;4994924;28;20030;-79
2022/03/21 09:28:33;;;;;;;13.30;9.60;;;6.70;72.10;;;;;;4995329;28;20038;-79
2022/03/21 09:30:59;;;;;;;11.88;8.13;;;6.80;72.10;;;;;;5013996;28;20033;-79
2022/03/21 09:33:27;;;;;;;13.85;9.43;;;6.90;72.70;;;;;;5014392;28;20068;-80
2022/03/21 09:35:53;;;;;;;13.15;9.13;;;6.90;72.10;;;;;;5006717;28;20030;-79
2022/03/21 09:38:19;;;;;;;13.07;9.25;;;7.00;72.10;;;;;;5001024;28;20072;-81
2022/03/21 09:40:45;;;;;;;11.75;9.00;;;7.10;72.10;;;;;;4985605;28;20034;-79
2022/03/21 09:43:12;;;;;;;12.98;9.20;;;7.20;72.10;;;;;;4989409;28;20044;-79
2022/03/21 09:45:39;;;;;;;13.90;9.10;;;7.30;72.10;;;;;;4957110;28;20038;-79
2022/03/21 09:48:08;;;;;;;12.52;8.88;;;7.40;72.20;;;;;;4992783;28;20022;-82
2022/03/21 09:50:36;;;;;;;13.23;9.63;;;7.50;72.20;;;;;;4976544;28;20031;-82
2022/03/21 09:53:10;;;;;;;12.77;9.00;;;7.60;72.30;;;;;;4963752;28;20177;-81
2022/03/21 09:55:36;;;;;;;13.20;9.50;;;7.70;72.40;;;;;;4981256;28;20022;-82
2022/03/21 09:58:03;;;;;;;12.30;8.65;;;7.80;72.40;;;;;;4987831;28;20027;-83
2022/03/21 10:00:29;;;;;;;11.90;9.43;;;7.90;72.50;;;;;;4990257;28;20045;-81
2022/03/21 10:02:56;;;;;;;13.02;9.70;;;8.00;72.60;;;;;;4977591;28;20126;-81
2022/03/21 10:05:40;;;;;;;12.88;8.90;;;8.10;72.70;;;;;;4989132;28;20065;-81
2022/03/21 10:08:18;;;;;;;13.95;8.95;;;8.20;72.90;;;;;;4978637;28;20037;-82
2022/03/21 10:10:56;;;;;;;14.10;9.52;;;8.30;72.80;;;;;;4988894;28;20037;-82
2022/03/21 10:13:25;;;;;;;14.30;9.27;;;8.40;73.00;;;;;;5001196;28;20030;-81
2022/03/21 10:16:11;;;;;;;13.38;9.45;;;8.50;73.00;;;;;;4985988;28;20030;-82
2022/03/21 10:18:38;;;;;;;12.63;9.38;;;8.70;73.20;;;;;;4990577;28;20044;-82
2022/03/21 10:21:15;;;;;;;11.98;9.18;;;8.80;73.10;;;;;;4978856;28;20038;-81
2022/03/21 10:23:44;;;;;;;13.13;9.05;;;8.90;73.30;;;;;;4972017;28;20033;-82
2022/03/21 10:26:28;;;;;;;12.13;8.90;;;9.00;73.80;;;;;;4988374;28;20025;-82
2022/03/21 10:28:59;;;;;;;17.00;9.55;;;9.20;73.30;;;;;;4994180;28;20383;-81
2022/03/21 10:31:41;;;;;;;11.45;8.85;;;9.30;73.30;;;;;;4969289;28;20030;-81
2022/03/21 10:34:13;;;;;;;12.93;9.95;;;9.40;73.40;;;;;;4984969;28;20483;-81
2022/03/21 10:36:57;;;;;;;13.50;9.90;;;9.50;73.40;;;;;;4984136;28;20034;-82
2022/03/21 10:39:22;;;;;;;12.15;8.88;;;9.70;73.50;;;;;;4983596;28;20030;-82
2022/03/21 10:41:58;;;;;;;12.10;9.05;;;9.80;73.40;;;;;;4964038;28;20106;-82
2022/03/21 10:44:25;;;;;;;14.18;9.65;;;9.90;73.70;;;;;;5012949;28;20099;-81
2022/03/21 10:46:56;;;;;;;14.00;10.07;;;10.00;73.60;;;;;;5004002;28;20029;-80
2022/03/21 10:49:33;;;;;;;11.63;8.95;;;10.10;73.70;;;;;;5012344;28;20462;-80
2022/03/21 10:52:00;;;;;;;12.88;9.48;;;10.30;73.80;;;;;;5011899;28;20026;-79
2022/03/21 10:54:49;;;;;;;12.65;9.48;;;10.40;73.80;;;;;;5003793;28;20030;-78
2022/03/21 10:57:38;;;;;;;13.35;9.48;;;10.50;74.20;;;;;;5002257;28;20034;-77
2022/03/21 11:00:23;;;;;;;13.88;9.65;;;10.70;74.20;;;;;;5003496;28;20089;-77
2022/03/21 11:02:48;;;;;;;12.27;10.05;;;10.80;74.20;;;;;;5011732;28;20032;-78
2022/03/21 11:05:15;;;;;;;13.10;9.23;;;10.90;74.00;;;;;;5003798;28;20395;-79
2022/03/21 11:07:41;;;;;;;12.88;9.73;;;11.00;74.00;;;;;;5011697;28;20057;-77
2022/03/21 11:10:08;;;;;;;12.40;9.90;;;11.10;74.10;;;;;;5012257;28;20061;-79
2022/03/21 11:12:34;;;;;;;13.45;9.98;;;11.30;74.10;;;;;;5011577;28;20482;-78
2022/03/21 11:15:01;;;;;;;14.57;10.50;;;11.40;74.20;;;;;;4979461;28;20178;-77
2022/03/21 11:17:27;;;;;;;13.63;9.90;;;11.50;74.30;;;;;;4995231;28;20426;-78
2022/03/21 11:19:54;;;;;;;15.15;10.65;;;11.70;74.40;;;;;;4995100;28;20030;-77
2022/03/21 11:22:20;;;;;;;13.40;10.07;;;11.80;74.40;;;;;;4986683;28;20030;-79
2022/03/21 11:24:45;;;;;;;12.82;9.95;;;11.90;74.40;;;;;;4999985;28;20101;-80
2022/03/21 11:27:31;;;;;;;14.30;10.27;;;12.00;74.50;;;;;;5007299;28;20037;-78
2022/03/21 11:30:31;;;;;;;13.40;10.73;;;12.10;74.60;;;;;;5005000;28;20459;-79
2022/03/21 11:33:05;;;;;;;14.27;10.95;;;12.30;74.70;;;;;;4987977;28;20029;-78
2022/03/21 11:35:33;;;;;;;12.63;10.07;;;12.40;74.50;;;;;;4994445;28;20037;-78
2022/03/21 11:38:27;;;;;;;13.75;10.18;;;12.50;74.50;;;;;;4994610;28;20122;-79
2022/03/21 11:41:13;;;;;;;13.45;10.48;;;12.60;74.80;;;;;;5008338;28;20498;-79
2022/03/21 11:43:45;;;;;;;14.52;10.45;;;12.70;74.80;;;;;;5002475;28;20053;-78
2022/03/21 11:46:25;;;;;;;14.68;11.02;;;12.80;74.70;;;;;;5012322;28;20072;-78
2022/03/21 11:48:53;;;;;;;14.40;10.50;;;13.00;74.90;;;;;;4994704;28;20092;-79
2022/03/21 11:51:18;;;;;;;14.00;10.98;;;13.00;74.90;;;;;;4994285;28;20410;-80
2022/03/21 11:53:49;;;;;;;14.57;10.18;;;13.10;74.90;;;;;;5011542;28;20103;-77
2022/03/21 11:56:41;;;;;;;14.35;11.23;;;13.20;75.10;;;;;;5004438;28;20026;-77
2022/03/21 11:59:08;;;;;;;13.60;10.60;;;13.30;75.30;;;;;;4992187;28;20065;-79
2022/03/21 12:01:34;;;;;;;14.98;10.93;;;13.40;75.10;;;;;;4988381;28;20026;-78
2022/03/21 12:04:24;;;;;;;14.00;11.35;;;13.50;75.30;;;;;;5002207;28;20026;-78
2022/03/21 12:06:56;;;;;;;12.38;9.90;;;13.60;75.50;;;;;;5001518;28;20134;-77
2022/03/21 12:09:22;;;;;;;13.38;10.43;;;13.70;75.40;;;;;;5010050;28;20368;-78
2022/03/21 12:11:48;;;;;;;13.88;10.32;;;13.80;75.50;;;;;;4999431;28;20080;-76
2022/03/21 12:14:23;;;;;;;14.98;11.90;;;13.80;75.60;;;;;;5009764;28;20026;-75
2022/03/21 12:17:01;;;;;;;13.48;10.73;;;13.90;75.80;;;;;;5009533;28;20034;-76
2022/03/21 12:19:48;;;;;;;13.07;10.90;;;14.00;75.90;;;;;;4993285;28;20049;-76
2022/03/21 12:22:29;;;;;;;12.75;10.20;;;14.10;76.00;;;;;;5011438;28;20026;-77
2022/03/21 12:25:04;;;;;;;14.82;10.80;;;14.20;76.00;;;;;;5010419;28;20526;-76
2022/03/21 12:27:34;;;;;;;12.73;10.70;;;14.20;75.90;;;;;;5009884;28;20049;-76
2022/03/21 12:30:27;;;;;;;14.18;10.88;;;14.30;75.90;;;;;;5009482;28;20032;-77
2022/03/21 12:33:22;;;;;;;12.40;10.50;;;14.40;76.10;;;;;;4985752;28;20042;-77
2022/03/21 12:35:52;;;;;;;14.73;11.47;;;14.40;75.90;;;;;;5008709;28;20037;-77
2022/03/21 12:38:34;;;;;;;13.18;10.57;;;14.60;76.00;;;;;;5010161;28;20545;-77
2022/03/21 12:41:04;;;;;;;13.68;11.23;;;14.60;76.10;;;;;;5002246;28;20026;-79
2022/03/21 12:43:30;;;;;;;14.15;11.40;;;14.70;76.10;;;;;;5009730;28;20161;-79
2022/03/21 12:46:07;;;;;;;13.30;11.60;;;14.80;76.20;;;;;;5009058;28;20121;-77
2022/03/21 12:48:35;;;;;;;14.40;11.75;;;14.80;76.50;;;;;;5003016;28;20030;-77
2022/03/21 12:51:04;;;;;;;14.45;11.55;;;14.90;76.30;;;;;;4991089;28;20427;-77
2022/03/21 12:53:47;;;;;;;16.52;12.95;;;15.00;76.40;;;;;;4994405;28;20034;-78
2022/03/21 12:56:15;;;;;;;15.65;12.13;;;15.10;76.50;;;;;;4993364;28;20057;-76
2022/03/21 12:58:47;;;;;;;12.90;11.40;;;15.10;76.40;;;;;;5001241;28;20467;-78
2022/03/21 13:01:17;;;;;;;14.00;11.48;;;15.20;76.50;;;;;;5009227;28;20030;-77
2022/03/21 13:03:44;;;;;;;15.68;11.93;;;15.30;76.50;;;;;;5010536;28;20414;-81
2022/03/21 13:11:28;;;;;;;13.27;11.40;;;15.40;76.40;;;;;;4993752;28;20026;-76
2022/03/21 13:13:56;;;;;;;15.23;12.65;;;15.50;76.60;;;;;;5001604;28;20029;-78